Aviation Digital Data Service (ADDS)

Output produced by METARs form (1124 UTC 16 February 2019)
found at http://www.aviationweather.gov/metar/data/
 
METAR text: RJAH 161100Z 35009KT 9999 FEW030 05/M07 Q1009
Conditions at: RJAH (HYAKURI (JASDF) , JP) observed 1100 UTC 16 February 2019
Temperature: 5.0°C (41°F)
Dewpoint: -7.0°C (19°F) [RH = 41%]
Pressure (altimeter): 29.79 inches Hg (1009.0 mb)
Winds: from the N (350 degrees) at 10 MPH (9 knots; 4.6 m/s)
Visibility: 6 or more miles (10+ km)
Ceiling: at least 12,000 feet AGL
Clouds: few clouds at 3000 feet AGL
Weather: no significant weather observed at this time

METAR text: RJAH 161030Z 35010KT 9999 FEW030 SCT050 06/M07 Q1009 RMK 1CU030 3SC050 A2981
Conditions at: RJAH (HYAKURI (JASDF) , JP) observed 1030 UTC 16 February 2019
Temperature: 6.0°C (43°F)
Dewpoint: -7.0°C (19°F) [RH = 39%]
Pressure (altimeter): 29.79 inches Hg (1009.0 mb)
Winds: from the N (350 degrees) at 12 MPH (10 knots; 5.1 m/s)
Visibility: 6 or more miles (10+ km)
Ceiling: at least 12,000 feet AGL
Clouds: few clouds at 3000 feet AGL
scattered clouds at 5000 feet AGL
Weather: no significant weather observed at this time

Forecast for: RJAH (HYAKURI (JASDF) , JP)
Text: TAF RJAH 160505Z 1606/1712 12008KT 9999 FEW030 SCT045
Forecast period: 0600 UTC 16 February 2019 to 1200 UTC 17 February 2019
Forecast type: FROM: standard forecast or significant change
Winds: from the ESE (120 degrees) at 9 MPH (8 knots; 4.1 m/s)
Visibility: 6 or more miles 10+ km)
Ceiling: at least 12,000 feet AGL
Clouds: few clouds at 3000 feet AGL
scattered clouds at 4500 feet AGL
Weather: no significant weather forecast for this period
Text: BECMG 1606/1608 36010KT
Forecast period: 0600 to 1400 UTC 16 February 2019
Forecast type: BECOMING: Conditions expected to become as follows by 0800 UTC 16 February 2019
Winds: from the N (360 degrees) at 12 MPH (10 knots; 5.1 m/s)
Visibility: 6 or more miles 10+ km)
Ceiling: at least 12,000 feet AGL
Clouds: few clouds at 3000 feet AGL
scattered clouds at 4500 feet AGL
Weather: no significant weather forecast for this period
Text: BECMG 1614/1616 25004KT
Forecast period: 1400 UTC 16 February 2019 to 0300 UTC 17 February 2019
Forecast type: BECOMING: Conditions expected to become as follows by 1600 UTC 16 February 2019
Winds: from the WSW (250 degrees) at 5 MPH (4 knots; 2.1 m/s)
Visibility: 6 or more miles 10+ km)
Ceiling: at least 12,000 feet AGL
Clouds: few clouds at 3000 feet AGL
scattered clouds at 4500 feet AGL
Weather: no significant weather forecast for this period
Text: BECMG 1703/1706 35005KT
Forecast period: 0300 to 1200 UTC 17 February 2019
Forecast type: BECOMING: Conditions expected to become as follows by 0600 UTC 17 February 2019
Winds: from the N (350 degrees) at 6 MPH (5 knots; 2.6 m/s)
Visibility: 6 or more miles 10+ km)
Ceiling: at least 12,000 feet AGL
Clouds: few clouds at 3000 feet AGL
scattered clouds at 4500 feet AGL
Weather: no significant weather forecast for this period